Time;durP1;ratioP1;P1;durP2;ratioP2;P2;SDS_P1;SDS_P2;PMS_P1;PMS_P2;Temp;Humidity;BMP_temperature;BMP_pressure;BME280_temperature;BME280_humidity;BME280_pressure;Samples;Min_cycle;Max_cycle;Signal;HPM_P1;HPM_P2
2021/01/01 00:01:03;;;;;;;14.45;6.45;;;4.40;99.90;;;;;;4989467;28;20160;-53
2021/01/01 00:03:28;;;;;;;11.85;5.82;;;4.40;99.90;;;;;;4989261;28;20488;-53
2021/01/01 00:05:54;;;;;;;13.23;6.05;;;4.50;99.90;;;;;;4988978;28;20034;-51
2021/01/01 00:08:20;;;;;;;10.32;5.47;;;4.50;99.90;;;;;;4988164;28;20030;-53
2021/01/01 00:10:45;;;;;;;11.77;5.72;;;4.40;99.90;;;;;;4989501;28;20026;-52
2021/01/01 00:13:11;;;;;;;22.70;7.93;;;4.50;99.90;;;;;;4989372;28;20026;-56
2021/01/01 00:15:37;;;;;;;20.05;8.50;;;4.50;99.90;;;;;;4988682;28;20200;-49
2021/01/01 00:18:03;;;;;;;16.30;6.43;;;4.50;99.90;;;;;;4989286;28;20030;-53
2021/01/01 00:20:29;;;;;;;17.13;7.10;;;4.50;99.90;;;;;;4989715;28;20042;-51
2021/01/01 00:22:54;;;;;;;14.77;6.50;;;4.50;99.90;;;;;;4988469;28;20415;-53
2021/01/01 00:25:20;;;;;;;15.30;5.75;;;4.50;99.90;;;;;;4987704;28;20490;-53
2021/01/01 00:27:46;;;;;;;14.68;6.68;;;4.50;99.90;;;;;;4987909;28;20062;-54
2021/01/01 00:30:12;;;;;;;11.40;5.88;;;4.50;99.90;;;;;;4988205;28;20115;-54
2021/01/01 00:32:47;;;;;;;9.30;5.22;;;4.50;99.90;;;;;;4988497;28;20173;-54
2021/01/01 00:35:13;;;;;;;14.43;5.40;;;4.50;99.90;;;;;;4987776;28;20035;-54
2021/01/01 00:37:40;;;;;;;11.80;5.45;;;4.50;99.90;;;;;;4986683;28;20632;-52
2021/01/01 00:40:06;;;;;;;10.18;5.15;;;4.50;99.90;;;;;;4986747;28;20049;-54
2021/01/01 00:42:38;;;;;;;9.57;5.18;;;4.50;99.90;;;;;;4988791;28;20054;-55
2021/01/01 00:45:05;;;;;;;15.30;6.03;;;4.50;99.90;;;;;;4987348;28;20486;-54
2021/01/01 00:47:31;;;;;;;12.45;5.25;;;4.50;99.90;;;;;;4984362;28;20038;-54
2021/01/01 00:49:57;;;;;;;11.27;5.60;;;4.50;99.90;;;;;;4987386;28;20043;-56
2021/01/01 00:52:23;;;;;;;13.35;6.03;;;4.50;99.90;;;;;;4988427;28;20395;-51
2021/01/01 00:54:48;;;;;;;10.75;5.07;;;4.50;99.90;;;;;;4989044;28;20058;-52
2021/01/01 00:57:14;;;;;;;9.10;5.03;;;4.50;99.90;;;;;;4988474;28;20129;-49
2021/01/01 00:59:40;;;;;;;9.18;4.45;;;4.50;99.90;;;;;;4987776;28;20039;-52
2021/01/01 01:02:06;;;;;;;8.13;4.28;;;4.50;99.90;;;;;;4987965;28;20469;-50
2021/01/01 01:04:31;;;;;;;9.63;5.05;;;4.50;99.90;;;;;;4989281;28;20121;-54
2021/01/01 01:06:57;;;;;;;14.50;4.63;;;4.50;99.90;;;;;;4989031;28;20040;-50
2021/01/01 01:09:23;;;;;;;10.10;5.07;;;4.50;99.90;;;;;;4989333;28;20034;-55
2021/01/01 01:11:49;;;;;;;11.05;6.03;;;4.50;99.90;;;;;;4988712;28;20153;-54
2021/01/01 01:14:14;;;;;;;11.02;6.00;;;4.50;99.90;;;;;;4988849;28;20034;-56
2021/01/01 01:16:40;;;;;;;14.52;6.57;;;4.40;99.90;;;;;;4989578;28;20026;-54
2021/01/01 01:19:06;;;;;;;13.30;6.05;;;4.50;99.90;;;;;;4992864;28;20092;-54
2021/01/01 01:21:32;;;;;;;12.40;6.00;;;4.50;99.90;;;;;;4991921;28;20073;-53
2021/01/01 01:23:58;;;;;;;12.88;5.60;;;4.50;99.90;;;;;;4991440;28;20160;-53
2021/01/01 01:26:24;;;;;;;13.52;5.88;;;4.40;99.90;;;;;;4989976;28;20058;-55
2021/01/01 01:28:50;;;;;;;10.60;5.30;;;4.40;99.90;;;;;;4992037;28;20355;-54
2021/01/01 01:31:16;;;;;;;9.80;5.20;;;4.40;99.90;;;;;;4990720;28;20085;-51
2021/01/01 01:33:43;;;;;;;13.90;6.40;;;4.40;99.90;;;;;;4991883;28;20375;-53
2021/01/01 01:36:09;;;;;;;11.48;5.25;;;4.30;99.90;;;;;;4991542;28;20363;-52
2021/01/01 01:38:35;;;;;;;10.82;5.90;;;4.30;99.90;;;;;;4991290;28;20050;-54
2021/01/01 01:41:00;;;;;;;15.48;5.93;;;4.30;99.90;;;;;;4989783;28;20027;-57
2021/01/01 01:43:26;;;;;;;11.77;5.57;;;4.30;99.90;;;;;;4990981;28;20065;-52
2021/01/01 01:45:55;;;;;;;12.13;5.72;;;4.30;99.90;;;;;;4990434;28;20038;-55
2021/01/01 01:48:28;;;;;;;10.45;5.03;;;4.20;99.90;;;;;;4991266;28;20398;-53
2021/01/01 01:50:54;;;;;;;12.65;6.45;;;4.30;99.90;;;;;;4990729;28;20110;-55
2021/01/01 01:53:22;;;;;;;13.20;6.03;;;4.20;99.90;;;;;;4991140;28;20042;-53
2021/01/01 01:55:52;;;;;;;15.88;7.55;;;4.20;99.90;;;;;;4991858;28;20153;-48
2021/01/01 01:58:22;;;;;;;13.50;6.53;;;4.20;99.90;;;;;;4990336;28;20058;-54
2021/01/01 02:03:17;;;;;;;17.77;7.22;;;4.10;99.90;;;;;;4986588;28;20042;-54
2021/01/01 02:05:43;;;;;;;13.15;6.57;;;4.20;99.90;;;;;;4991154;28;20030;-54
2021/01/01 02:08:09;;;;;;;18.48;6.47;;;4.20;99.90;;;;;;4991473;28;20164;-54
2021/01/01 02:10:35;;;;;;;9.98;4.85;;;4.20;99.90;;;;;;4991170;28;20143;-55
2021/01/01 02:13:01;;;;;;;13.70;6.32;;;4.20;99.90;;;;;;4991543;28;20026;-56
2021/01/01 02:15:28;;;;;;;14.40;6.63;;;4.20;99.90;;;;;;4991693;28;20038;-53
2021/01/01 02:17:55;;;;;;;13.98;5.72;;;4.20;99.90;;;;;;4991424;28;20042;-56
2021/01/01 02:20:21;;;;;;;15.25;6.25;;;4.20;99.90;;;;;;4991311;28;20046;-55
2021/01/01 02:22:47;;;;;;;10.10;5.50;;;4.20;99.90;;;;;;4991288;28;20412;-56
2021/01/01 02:25:13;;;;;;;12.65;5.43;;;4.30;99.90;;;;;;4991512;28;20056;-55
2021/01/01 02:27:40;;;;;;;13.43;5.75;;;4.30;99.90;;;;;;4990986;28;20062;-54
2021/01/01 02:30:07;;;;;;;13.18;6.15;;;4.20;99.90;;;;;;4991301;28;20034;-53
2021/01/01 02:32:33;;;;;;;14.15;6.57;;;4.30;99.90;;;;;;4990838;28;20077;-55
2021/01/01 02:35:00;;;;;;;13.73;6.57;;;4.20;99.90;;;;;;4991744;28;20034;-55
2021/01/01 02:37:26;;;;;;;14.43;6.97;;;4.20;99.90;;;;;;4991590;28;20451;-55
2021/01/01 02:39:52;;;;;;;18.25;7.13;;;4.20;99.90;;;;;;4991410;28;20038;-55
2021/01/01 02:42:17;;;;;;;16.17;5.78;;;4.20;99.90;;;;;;4990542;28;20368;-53
2021/01/01 02:44:44;;;;;;;15.57;6.10;;;4.20;99.90;;;;;;4991183;28;20034;-55
2021/01/01 02:47:10;;;;;;;19.08;6.78;;;4.20;99.90;;;;;;4990930;28;20030;-57
2021/01/01 02:49:36;;;;;;;14.40;6.43;;;4.20;99.90;;;;;;4991223;28;20393;-57
2021/01/01 02:52:02;;;;;;;13.50;6.72;;;4.30;99.90;;;;;;5182279;22;20172;-54
2021/01/01 02:54:28;;;;;;;18.98;6.85;;;4.30;99.90;;;;;;5008371;28;20140;-49
2021/01/01 02:56:54;;;;;;;13.80;6.20;;;4.30;99.90;;;;;;5010931;28;20120;-50
2021/01/01 02:59:23;;;;;;;13.30;5.20;;;4.20;99.90;;;;;;5009138;28;20448;-55
2021/01/01 03:01:51;;;;;;;11.98;6.95;;;4.20;99.90;;;;;;5010734;28;20034;-51
2021/01/01 03:04:16;;;;;;;12.35;5.93;;;4.20;99.90;;;;;;5010322;28;20560;-53
2021/01/01 03:06:42;;;;;;;10.77;5.20;;;4.20;99.90;;;;;;5010502;28;20034;-54
2021/01/01 03:09:08;;;;;;;14.25;5.50;;;4.10;99.90;;;;;;5010666;28;20779;-50
2021/01/01 03:11:34;;;;;;;11.65;5.35;;;4.20;99.90;;;;;;5010099;28;20029;-52
2021/01/01 03:13:59;;;;;;;11.43;5.25;;;4.10;99.90;;;;;;5010197;28;20040;-51
2021/01/01 03:16:25;;;;;;;14.73;6.78;;;4.10;99.90;;;;;;5010000;28;20425;-51
2021/01/01 03:18:51;;;;;;;13.48;5.55;;;4.10;99.90;;;;;;5010313;28;20030;-50
2021/01/01 03:21:18;;;;;;;16.15;6.50;;;4.10;99.90;;;;;;5009938;28;20443;-53
2021/01/01 03:23:44;;;;;;;16.60;6.93;;;4.10;99.90;;;;;;5009947;28;20034;-53
2021/01/01 03:26:10;;;;;;;17.73;6.75;;;4.10;99.90;;;;;;5010284;28;20037;-50
2021/01/01 03:28:35;;;;;;;17.15;8.57;;;4.10;99.90;;;;;;5010096;28;20535;-53
2021/01/01 03:31:01;;;;;;;17.05;9.20;;;4.00;99.90;;;;;;5010006;28;20034;-52
2021/01/01 03:33:27;;;;;;;24.58;11.57;;;3.90;99.90;;;;;;5009863;28;20046;-54
2021/01/01 03:35:53;;;;;;;22.80;10.77;;;3.90;99.90;;;;;;5010103;28;20034;-50
2021/01/01 03:38:19;;;;;;;21.05;9.95;;;3.90;99.90;;;;;;5009565;28;20519;-53
2021/01/01 03:40:48;;;;;;;20.35;11.13;;;3.80;99.90;;;;;;5009190;28;20034;-54
2021/01/01 03:43:14;;;;;;;24.77;11.18;;;3.90;99.90;;;;;;5009958;28;20040;-53
2021/01/01 03:45:40;;;;;;;23.13;11.93;;;3.90;99.90;;;;;;5009731;28;20044;-55
2021/01/01 03:48:07;;;;;;;20.60;10.73;;;3.90;99.90;;;;;;5009741;28;20029;-54
2021/01/01 03:50:33;;;;;;;25.92;11.75;;;3.90;99.90;;;;;;5009543;28;20050;-50
2021/01/01 03:52:59;;;;;;;22.15;12.00;;;3.80;99.90;;;;;;5009607;28;20424;-53
2021/01/01 03:55:25;;;;;;;19.65;11.30;;;3.80;99.90;;;;;;5009448;28;20124;-54
2021/01/01 03:57:50;;;;;;;20.88;9.88;;;3.80;99.90;;;;;;5009412;28;20091;-56
2021/01/01 04:00:16;;;;;;;22.92;10.85;;;3.80;99.90;;;;;;5009499;28;20519;-51
2021/01/01 04:02:42;;;;;;;18.38;9.30;;;3.80;99.90;;;;;;5009446;28;20030;-53
2021/01/01 04:05:09;;;;;;;22.30;10.88;;;3.80;99.90;;;;;;5009384;28;20026;-54
2021/01/01 04:07:34;;;;;;;19.77;8.75;;;3.80;99.90;;;;;;5009734;28;20034;-55
2021/01/01 04:10:00;;;;;;;17.92;9.02;;;3.70;99.90;;;;;;5009840;28;20480;-53
2021/01/01 04:12:26;;;;;;;17.52;7.70;;;3.70;99.90;;;;;;5009530;28;20029;-54
2021/01/01 04:14:51;;;;;;;11.32;6.60;;;3.80;99.90;;;;;;5009843;28;20172;-52
2021/01/01 04:17:17;;;;;;;16.25;7.20;;;3.80;99.90;;;;;;5009248;28;20550;-53
2021/01/01 04:19:43;;;;;;;13.82;6.10;;;3.90;99.90;;;;;;5008879;28;20115;-47
2021/01/01 04:22:09;;;;;;;15.93;6.53;;;4.00;99.90;;;;;;5009268;28;20382;-54
2021/01/01 04:24:35;;;;;;;14.63;6.60;;;4.00;99.90;;;;;;5009308;28;20118;-51
2021/01/01 04:27:00;;;;;;;12.15;5.97;;;4.00;99.90;;;;;;5009163;28;20030;-53
2021/01/01 04:29:26;;;;;;;11.15;5.97;;;4.00;99.90;;;;;;5009120;28;20077;-51
2021/01/01 04:31:52;;;;;;;16.88;6.22;;;4.00;99.90;;;;;;5009065;28;20037;-52
2021/01/01 04:34:18;;;;;;;13.80;5.85;;;4.00;99.90;;;;;;5008746;28;20159;-55
2021/01/01 04:36:44;;;;;;;11.50;5.88;;;4.00;99.90;;;;;;5008973;28;20030;-50
2021/01/01 04:39:09;;;;;;;12.60;5.60;;;4.00;99.90;;;;;;5009161;28;20054;-52
2021/01/01 04:41:39;;;;;;;11.45;5.57;;;4.00;99.90;;;;;;5009008;28;20434;-50
2021/01/01 04:44:06;;;;;;;14.45;5.90;;;4.10;99.90;;;;;;5009165;28;20057;-50
2021/01/01 04:46:33;;;;;;;13.05;6.25;;;4.10;99.90;;;;;;5008943;28;20148;-55
2021/01/01 04:49:01;;;;;;;14.40;5.43;;;4.10;99.90;;;;;;5008683;28;20081;-56
2021/01/01 04:51:27;;;;;;;13.52;6.03;;;4.10;99.90;;;;;;5011110;28;20215;-56
2021/01/01 04:53:57;;;;;;;14.02;5.78;;;4.10;99.90;;;;;;5012719;28;20085;-52
2021/01/01 04:56:23;;;;;;;16.00;5.88;;;4.10;99.90;;;;;;5012950;28;20032;-51
2021/01/01 04:58:50;;;;;;;12.68;6.13;;;4.10;99.90;;;;;;5012631;28;20034;-54
2021/01/01 05:01:15;;;;;;;16.50;5.78;;;4.10;99.90;;;;;;5012552;28;20100;-52
2021/01/01 05:03:41;;;;;;;12.52;5.18;;;4.10;99.90;;;;;;5013130;28;20034;-50
2021/01/01 05:06:07;;;;;;;12.88;5.38;;;4.00;99.90;;;;;;5012687;28;20034;-52
2021/01/01 05:08:33;;;;;;;12.88;5.47;;;4.00;99.90;;;;;;5012594;28;20032;-50
2021/01/01 05:11:09;;;;;;;15.55;6.18;;;4.10;99.90;;;;;;5012850;28;20108;-54
2021/01/01 05:13:35;;;;;;;12.40;5.63;;;4.00;99.90;;;;;;5012852;28;20053;-52
2021/01/01 05:16:01;;;;;;;12.45;6.50;;;4.00;99.90;;;;;;5012348;28;20549;-51
2021/01/01 05:18:28;;;;;;;11.60;5.90;;;4.10;99.90;;;;;;5012245;28;20053;-50
2021/01/01 05:21:02;;;;;;;17.05;6.05;;;4.10;99.90;;;;;;5012524;28;20135;-53
2021/01/01 05:23:29;;;;;;;15.30;6.90;;;4.10;99.90;;;;;;5012499;28;20426;-52
2021/01/01 05:26:12;;;;;;;14.40;6.07;;;4.00;99.90;;;;;;5012218;28;20038;-52
2021/01/01 05:28:51;;;;;;;14.70;5.57;;;4.10;99.90;;;;;;5012319;28;20030;-51
2021/01/01 05:31:40;;;;;;;14.63;5.57;;;4.10;99.90;;;;;;5012193;28;20065;-49
2021/01/01 05:34:16;;;;;;;12.90;4.95;;;4.10;99.90;;;;;;5001789;28;20042;-55
2021/01/01 05:36:47;;;;;;;12.68;5.35;;;4.10;99.90;;;;;;5012002;28;20030;-50
2021/01/01 05:39:13;;;;;;;14.93;4.68;;;4.10;99.90;;;;;;5011907;28;20178;-47
2021/01/01 05:41:41;;;;;;;11.50;5.22;;;4.10;99.90;;;;;;5012176;28;20072;-51
2021/01/01 05:44:12;;;;;;;11.90;4.95;;;4.20;99.90;;;;;;5011691;28;20026;-52
2021/01/01 05:46:58;;;;;;;13.00;5.55;;;4.20;99.90;;;;;;5012020;28;20421;-49
2021/01/01 05:49:43;;;;;;;13.10;6.32;;;4.20;99.90;;;;;;5011709;28;20109;-51
2021/01/01 05:52:16;;;;;;;12.30;6.10;;;4.20;99.90;;;;;;5011912;28;20114;-49
2021/01/01 05:54:47;;;;;;;17.70;6.22;;;4.10;99.90;;;;;;5011689;28;20053;-48
2021/01/01 05:57:14;;;;;;;16.23;6.03;;;4.10;99.90;;;;;;5011650;28;20080;-55
2021/01/01 05:59:50;;;;;;;13.15;4.85;;;4.10;99.90;;;;;;5011497;28;20038;-54
2021/01/01 06:02:16;;;;;;;14.02;5.10;;;4.10;99.90;;;;;;5011021;28;20037;-52
2021/01/01 06:04:42;;;;;;;12.85;5.85;;;4.10;99.90;;;;;;5011388;28;20029;-51
2021/01/01 06:07:11;;;;;;;15.15;5.75;;;4.10;99.90;;;;;;5011417;28;20036;-49
2021/01/01 06:09:39;;;;;;;10.23;4.95;;;4.10;99.90;;;;;;5011419;28;20022;-51
2021/01/01 06:12:11;;;;;;;13.68;4.30;;;4.10;99.90;;;;;;5009908;28;20030;-52
2021/01/01 06:14:38;;;;;;;10.32;4.95;;;4.10;99.90;;;;;;5011349;28;20087;-55
2021/01/01 06:17:09;;;;;;;12.10;4.80;;;4.00;99.90;;;;;;5011252;28;20120;-55
2021/01/01 06:19:50;;;;;;;12.05;6.30;;;4.10;99.90;;;;;;5011291;28;20393;-52
2021/01/01 06:22:23;;;;;;;12.23;5.30;;;4.10;99.90;;;;;;5011745;28;20045;-53
2021/01/01 06:24:57;;;;;;;18.30;6.40;;;4.10;99.90;;;;;;5011014;28;20040;-54
2021/01/01 06:27:25;;;;;;;14.50;6.82;;;4.10;99.90;;;;;;5011147;28;20113;-50
2021/01/01 06:30:02;;;;;;;16.05;7.00;;;4.10;99.90;;;;;;5011178;28;20080;-52
2021/01/01 06:32:31;;;;;;;18.83;8.73;;;4.10;99.90;;;;;;5011100;28;20060;-52
2021/01/01 06:35:21;;;;;;;16.25;10.07;;;4.10;99.90;;;;;;5010956;28;20120;-54
2021/01/01 06:37:57;;;;;;;21.02;10.23;;;4.10;99.90;;;;;;5011209;28;20466;-54
2021/01/01 06:40:22;;;;;;;18.65;10.40;;;4.30;99.90;;;;;;5010903;28;20037;-52
2021/01/01 06:42:55;;;;;;;15.50;8.43;;;4.20;99.90;;;;;;5010665;28;20440;-52
2021/01/01 06:45:36;;;;;;;15.10;6.07;;;4.20;99.90;;;;;;5010788;28;20432;-50
2021/01/01 06:48:03;;;;;;;11.00;5.05;;;4.20;99.90;;;;;;5010698;28;20065;-50
2021/01/01 06:50:31;;;;;;;11.52;5.00;;;4.20;99.90;;;;;;5010885;28;20029;-56
2021/01/01 06:53:17;;;;;;;11.43;5.65;;;4.20;99.90;;;;;;5010349;28;20058;-50
2021/01/01 06:55:47;;;;;;;10.38;4.95;;;4.20;99.90;;;;;;5010816;28;20485;-48
2021/01/01 06:58:23;;;;;;;19.17;6.22;;;4.20;99.90;;;;;;5010265;28;20153;-51
2021/01/01 07:00:48;;;;;;;12.63;5.53;;;4.10;99.90;;;;;;5010420;28;20041;-51
2021/01/01 07:03:29;;;;;;;11.77;5.18;;;4.20;99.90;;;;;;5010624;28;20037;-51
2021/01/01 07:06:01;;;;;;;14.73;6.28;;;4.10;99.90;;;;;;5010360;28;20180;-51
2021/01/01 07:08:39;;;;;;;16.90;5.95;;;4.10;99.90;;;;;;5010501;28;20123;-51
2021/01/01 07:11:25;;;;;;;13.35;4.90;;;4.10;99.90;;;;;;5010277;28;20038;-48
2021/01/01 07:13:55;;;;;;;16.33;6.07;;;4.10;99.90;;;;;;4996663;28;20440;-51
2021/01/01 07:16:24;;;;;;;17.42;6.53;;;4.10;99.90;;;;;;5010136;28;20026;-52
2021/01/01 07:18:51;;;;;;;12.73;6.03;;;4.10;99.90;;;;;;5010172;28;20029;-52
2021/01/01 07:21:18;;;;;;;14.02;5.68;;;4.10;99.90;;;;;;5010093;28;20033;-57
2021/01/01 07:23:45;;;;;;;12.23;5.07;;;4.10;99.90;;;;;;5010118;28;20113;-53
2021/01/01 07:26:12;;;;;;;9.38;4.35;;;4.10;99.90;;;;;;5010023;28;20036;-53
2021/01/01 07:28:40;;;;;;;15.13;5.13;;;4.10;99.90;;;;;;5010044;28;20038;-49
2021/01/01 07:31:06;;;;;;;13.90;5.60;;;4.10;99.90;;;;;;5010139;28;20108;-54
2021/01/01 07:33:33;;;;;;;12.30;5.47;;;4.10;99.90;;;;;;5010022;28;20030;-51
2021/01/01 07:36:00;;;;;;;10.02;5.30;;;4.10;99.90;;;;;;5010106;28;20116;-52
2021/01/01 07:38:28;;;;;;;11.85;4.70;;;4.10;99.90;;;;;;5009945;28;20087;-51
2021/01/01 07:40:55;;;;;;;13.95;5.85;;;4.10;99.90;;;;;;5009704;28;20552;-49
2021/01/01 07:43:21;;;;;;;17.05;6.78;;;4.10;99.90;;;;;;5009654;28;20501;-53
2021/01/01 07:45:48;;;;;;;11.52;5.07;;;4.10;99.90;;;;;;5009551;28;20054;-51
2021/01/01 07:48:14;;;;;;;15.63;7.00;;;4.10;99.90;;;;;;5008363;28;20547;-52
2021/01/01 07:50:40;;;;;;;16.02;6.60;;;4.10;99.90;;;;;;5009642;28;20117;-48
2021/01/01 07:53:11;;;;;;;14.93;6.55;;;4.20;99.90;;;;;;5009615;28;20387;-52
2021/01/01 07:55:39;;;;;;;17.33;7.75;;;4.20;99.90;;;;;;5009397;28;20030;-49
2021/01/01 07:58:06;;;;;;;14.05;6.93;;;4.20;99.90;;;;;;5009433;28;20034;-52
2021/01/01 08:00:33;;;;;;;13.18;5.97;;;4.20;99.90;;;;;;5009274;28;20487;-51
2021/01/01 08:03:04;;;;;;;11.68;5.72;;;4.30;99.90;;;;;;5009599;28;20148;-57
2021/01/01 08:05:30;;;;;;;14.77;6.35;;;4.30;99.90;;;;;;5009600;28;20034;-51
2021/01/01 08:08:14;;;;;;;14.55;6.18;;;4.30;99.90;;;;;;5009514;28;20041;-50
2021/01/01 08:10:42;;;;;;;13.88;6.00;;;4.30;99.90;;;;;;5009333;28;20386;-54
2021/01/01 08:13:24;;;;;;;12.57;5.43;;;4.30;99.90;;;;;;5009062;28;20034;-52
2021/01/01 08:15:52;;;;;;;13.35;4.68;;;4.40;99.90;;;;;;5009219;28;20037;-53
2021/01/01 08:18:21;;;;;;;16.60;5.65;;;4.40;99.90;;;;;;5009069;28;20537;-49
2021/01/01 08:20:58;;;;;;;14.50;5.35;;;4.40;99.90;;;;;;5009114;28;20100;-56
2021/01/01 08:23:25;;;;;;;11.13;4.90;;;4.40;99.90;;;;;;5008674;28;20165;-54
2021/01/01 08:25:53;;;;;;;10.40;4.55;;;4.40;99.90;;;;;;5003905;28;20049;-51
2021/01/01 08:28:23;;;;;;;10.93;4.90;;;4.40;99.90;;;;;;4994552;28;20034;-49
2021/01/01 08:31:00;;;;;;;14.63;5.18;;;4.40;99.90;;;;;;5007322;28;20038;-52
2021/01/01 08:33:30;;;;;;;12.88;4.88;;;4.50;99.90;;;;;;5006564;28;20429;-53
2021/01/01 08:36:09;;;;;;;9.30;4.57;;;4.60;99.90;;;;;;5007164;28;20474;-52
2021/01/01 08:38:38;;;;;;;12.65;5.65;;;4.60;99.90;;;;;;4989374;28;20046;-52
2021/01/01 08:41:04;;;;;;;17.15;5.72;;;4.60;99.90;;;;;;5000090;28;20549;-54
2021/01/01 08:43:30;;;;;;;13.93;5.57;;;4.60;99.90;;;;;;5005776;28;20030;-55
2021/01/01 08:45:56;;;;;;;22.80;7.68;;;4.60;99.90;;;;;;5012852;28;20509;-51
2021/01/01 08:48:28;;;;;;;15.43;6.93;;;4.60;99.90;;;;;;5025792;28;20181;-52
2021/01/01 08:50:53;;;;;;;20.35;6.65;;;4.70;99.90;;;;;;5006961;28;20037;-48
2021/01/01 08:53:19;;;;;;;14.93;5.82;;;4.70;99.90;;;;;;5008177;28;20559;-52
2021/01/01 08:55:57;;;;;;;11.02;4.80;;;4.70;99.90;;;;;;5006667;28;20509;-49
2021/01/01 08:58:23;;;;;;;13.23;5.22;;;4.70;99.90;;;;;;5005103;28;20124;-51
2021/01/01 09:00:48;;;;;;;9.07;4.95;;;4.60;99.90;;;;;;4996926;28;20482;-50
2021/01/01 09:03:17;;;;;;;9.35;4.28;;;4.60;99.90;;;;;;4988976;28;20045;-51
2021/01/01 09:05:44;;;;;;;15.40;5.65;;;4.60;99.90;;;;;;5007838;28;20057;-50
2021/01/01 09:08:17;;;;;;;9.10;4.43;;;4.70;99.90;;;;;;4994219;28;20031;-47
2021/01/01 09:10:45;;;;;;;13.70;4.93;;;4.70;99.90;;;;;;5005214;28;20379;-51
2021/01/01 09:13:26;;;;;;;14.60;5.30;;;4.70;99.90;;;;;;5001406;28;20029;-57
2021/01/01 09:16:03;;;;;;;13.38;5.85;;;4.60;99.90;;;;;;5003304;28;20044;-52
2021/01/01 09:18:30;;;;;;;9.02;4.93;;;4.70;99.90;;;;;;4999335;28;20054;-53
2021/01/01 09:21:13;;;;;;;10.65;5.35;;;4.70;99.90;;;;;;5002941;28;20032;-49
2021/01/01 09:23:40;;;;;;;13.20;5.70;;;4.80;99.90;;;;;;4999879;28;20038;-52
2021/01/01 09:26:06;;;;;;;13.70;5.90;;;4.80;99.90;;;;;;5002259;28;20520;-56
2021/01/01 09:28:33;;;;;;;15.57;5.32;;;4.80;99.90;;;;;;5001695;28;20756;-53
2021/01/01 09:30:59;;;;;;;14.68;5.85;;;4.80;99.90;;;;;;5001684;28;20049;-51
2021/01/01 09:33:25;;;;;;;12.02;5.53;;;4.90;99.90;;;;;;5002413;28;20026;-53
2021/01/01 09:35:51;;;;;;;12.63;5.15;;;4.80;99.90;;;;;;5001351;28;20026;-55
2021/01/01 09:38:17;;;;;;;10.60;5.07;;;4.80;99.90;;;;;;5007218;28;20556;-55
2021/01/01 09:40:43;;;;;;;13.70;4.53;;;4.90;99.90;;;;;;5007234;28;20186;-55
2021/01/01 09:43:09;;;;;;;9.27;4.03;;;5.00;99.90;;;;;;5010027;28;20065;-56
2021/01/01 09:45:36;;;;;;;10.18;4.90;;;5.00;99.90;;;;;;5011165;28;20513;-56
2021/01/01 09:48:03;;;;;;;9.55;4.30;;;5.00;99.90;;;;;;5008821;28;20044;-52
2021/01/01 09:50:29;;;;;;;9.45;4.95;;;5.00;99.90;;;;;;5010105;28;20042;-55
2021/01/01 09:52:55;;;;;;;10.75;4.68;;;5.00;99.90;;;;;;5011587;28;20100;-51
2021/01/01 09:55:21;;;;;;;11.93;4.28;;;5.00;99.90;;;;;;5009943;28;21017;-54
2021/01/01 09:57:47;;;;;;;13.10;5.10;;;5.00;99.90;;;;;;5011671;28;20113;-53
2021/01/01 10:00:16;;;;;;;13.48;4.78;;;5.10;99.90;;;;;;5008317;28;20037;-52
2021/01/01 10:02:43;;;;;;;12.05;5.07;;;5.20;99.90;;;;;;5008114;28;20432;-54
2021/01/01 10:05:10;;;;;;;14.85;5.72;;;5.20;99.90;;;;;;5007112;28;20034;-52
2021/01/01 10:07:36;;;;;;;15.63;6.85;;;5.20;99.90;;;;;;5009461;28;20029;-54
2021/01/01 10:10:07;;;;;;;11.50;6.32;;;5.20;99.90;;;;;;5011375;28;20033;-53
2021/01/01 10:12:33;;;;;;;12.63;6.10;;;5.20;99.90;;;;;;5008725;28;20037;-57
2021/01/01 10:14:59;;;;;;;12.13;6.82;;;5.30;99.90;;;;;;5002319;28;20545;-53
2021/01/01 10:17:26;;;;;;;16.38;7.65;;;5.40;99.90;;;;;;5006252;28;20053;-53
2021/01/01 10:19:53;;;;;;;10.18;6.15;;;5.60;99.90;;;;;;5009102;28;20049;-52
2021/01/01 10:22:18;;;;;;;12.35;5.97;;;5.70;99.90;;;;;;5010383;28;20033;-53
2021/01/01 10:24:45;;;;;;;12.73;5.70;;;5.70;99.90;;;;;;5009582;28;20378;-47
2021/01/01 10:27:11;;;;;;;12.75;5.15;;;5.70;99.90;;;;;;5004196;28;20026;-53
2021/01/01 10:29:37;;;;;;;8.20;4.05;;;5.70;99.90;;;;;;5004221;28;20030;-57
2021/01/01 10:32:03;;;;;;;9.70;4.57;;;5.70;99.90;;;;;;5011076;28;20385;-65
2021/01/01 10:34:29;;;;;;;10.65;4.95;;;5.60;99.90;;;;;;5004971;28;20037;-56
2021/01/01 10:36:55;;;;;;;9.32;4.53;;;5.60;99.90;;;;;;5007100;28;20041;-60
2021/01/01 10:39:21;;;;;;;8.30;4.55;;;5.70;99.90;;;;;;4998953;28;20048;-56
2021/01/01 10:41:48;;;;;;;6.72;3.65;;;5.70;99.90;;;;;;5008417;28;20117;-57
2021/01/01 10:44:15;;;;;;;10.05;4.95;;;5.70;99.90;;;;;;5009043;28;20030;-56
2021/01/01 10:46:41;;;;;;;7.25;4.30;;;5.60;99.90;;;;;;5008735;28;20042;-54
2021/01/01 10:49:07;;;;;;;8.95;4.35;;;5.60;99.90;;;;;;5009683;28;20121;-55
2021/01/01 10:51:33;;;;;;;9.68;5.10;;;5.50;99.90;;;;;;5008703;28;20120;-54
2021/01/01 10:53:58;;;;;;;10.38;4.85;;;5.50;99.90;;;;;;5007327;28;20593;-49
2021/01/01 10:56:26;;;;;;;12.85;5.15;;;5.50;99.90;;;;;;5008402;28;20133;-54
2021/01/01 10:58:52;;;;;;;9.57;4.60;;;5.50;99.90;;;;;;4992111;28;20042;-57
2021/01/01 11:01:22;;;;;;;8.00;4.93;;;5.50;99.90;;;;;;5006360;28;20041;-56
2021/01/01 11:03:49;;;;;;;9.05;4.80;;;5.50;99.90;;;;;;5005695;28;20030;-56
2021/01/01 11:06:15;;;;;;;9.13;5.22;;;5.50;99.90;;;;;;5010532;28;20037;-53
2021/01/01 11:08:42;;;;;;;11.00;5.25;;;5.50;99.90;;;;;;5010252;28;20030;-56
2021/01/01 11:11:13;;;;;;;9.65;5.22;;;5.50;99.90;;;;;;5007318;28;20033;-54
2021/01/01 12:22:56;;;;;;;12.68;5.70;;;5.60;99.90;;;;;;5006856;28;20041;-54
2021/01/01 12:25:23;;;;;;;17.23;7.70;;;5.60;99.90;;;;;;4989603;28;20076;-55
2021/01/01 12:27:56;;;;;;;11.82;5.60;;;5.70;99.90;;;;;;5005172;28;20065;-58
2021/01/01 12:30:24;;;;;;;13.55;6.70;;;5.80;99.90;;;;;;4994609;28;20034;-55
2021/01/01 12:32:52;;;;;;;17.58;6.90;;;5.80;99.90;;;;;;4999077;28;20083;-58
2021/01/01 12:35:19;;;;;;;11.95;5.80;;;5.80;99.90;;;;;;4997872;28;20026;-57
2021/01/01 12:37:46;;;;;;;11.73;5.78;;;5.80;99.90;;;;;;4991061;28;20034;-56
2021/01/01 12:40:12;;;;;;;11.38;5.55;;;5.80;99.90;;;;;;4998735;28;20044;-57
2021/01/01 12:42:38;;;;;;;10.27;5.35;;;5.80;99.90;;;;;;5002989;28;20087;-56
2021/01/01 12:45:05;;;;;;;8.50;4.97;;;5.80;99.90;;;;;;5006137;28;20038;-58
2021/01/01 12:47:32;;;;;;;17.80;7.53;;;5.90;99.90;;;;;;5001792;28;20491;-56
2021/01/01 12:49:58;;;;;;;9.82;4.75;;;5.90;99.90;;;;;;5000359;28;20489;-57
2021/01/01 12:52:25;;;;;;;11.88;4.75;;;5.90;99.90;;;;;;4992489;28;20031;-55
2021/01/01 12:54:50;;;;;;;8.02;4.22;;;5.80;99.90;;;;;;5000701;28;20056;-58
2021/01/01 12:57:16;;;;;;;8.77;4.35;;;5.80;99.90;;;;;;4997232;28;20033;-54
2021/01/01 12:59:42;;;;;;;11.85;4.68;;;5.80;99.90;;;;;;5006176;28;20408;-58
2021/01/01 13:02:08;;;;;;;11.77;5.10;;;5.90;99.90;;;;;;5001524;28;20034;-56
2021/01/01 13:04:33;;;;;;;8.35;4.55;;;5.90;99.90;;;;;;4999354;28;20125;-57
2021/01/01 13:06:59;;;;;;;10.45;4.60;;;5.90;99.90;;;;;;5001269;28;20035;-55
2021/01/01 13:09:25;;;;;;;7.38;3.85;;;5.90;99.90;;;;;;4995100;28;20600;-58
2021/01/01 13:11:51;;;;;;;7.07;3.45;;;5.90;99.90;;;;;;5009723;28;20308;-57
2021/01/01 13:14:17;;;;;;;6.20;3.38;;;5.90;99.90;;;;;;5010663;28;20036;-58
2021/01/01 13:16:43;;;;;;;6.03;3.30;;;5.90;99.90;;;;;;4998913;28;20415;-57
2021/01/01 13:19:10;;;;;;;7.25;3.70;;;5.90;99.90;;;;;;4998554;28;20507;-58
2021/01/01 13:21:41;;;;;;;7.20;3.28;;;6.00;99.90;;;;;;5010397;28;20034;-56
2021/01/01 13:24:08;;;;;;;6.60;3.03;;;6.00;99.90;;;;;;5000680;28;20045;-54
2021/01/01 13:26:34;;;;;;;5.60;3.00;;;6.00;99.90;;;;;;5009064;28;20072;-56
2021/01/01 13:29:02;;;;;;;7.65;4.20;;;6.00;99.90;;;;;;5010005;28;20022;-57
2021/01/01 13:31:41;;;;;;;9.80;4.10;;;6.00;99.90;;;;;;5000614;28;20464;-53
2021/01/01 13:34:10;;;;;;;7.38;3.85;;;6.00;99.90;;;;;;5008857;28;20469;-57
2021/01/01 13:36:37;;;;;;;7.00;3.97;;;6.00;99.90;;;;;;5011062;28;20561;-55
2021/01/01 13:39:05;;;;;;;7.13;3.88;;;5.90;99.90;;;;;;5004931;28;20034;-54
2021/01/01 13:41:36;;;;;;;7.03;3.67;;;5.90;99.90;;;;;;4999493;28;20045;-51
2021/01/01 13:44:01;;;;;;;6.10;2.97;;;5.90;99.90;;;;;;5012031;28;20037;-56
2021/01/01 13:46:33;;;;;;;6.63;3.50;;;5.90;99.90;;;;;;5001776;28;20034;-56
2021/01/01 13:48:59;;;;;;;4.53;2.70;;;5.90;99.90;;;;;;5011763;28;20112;-56
2021/01/01 13:51:37;;;;;;;5.20;2.65;;;6.00;99.90;;;;;;5003463;28;20033;-57
2021/01/01 13:54:06;;;;;;;5.05;3.03;;;6.00;99.90;;;;;;5011687;28;20140;-56
2021/01/01 13:56:32;;;;;;;5.30;3.13;;;6.00;99.90;;;;;;5011135;28;20065;-55
2021/01/01 13:58:58;;;;;;;6.68;3.30;;;6.10;99.90;;;;;;4996452;28;20042;-57
2021/01/01 14:01:25;;;;;;;10.60;3.28;;;6.10;99.90;;;;;;5001009;28;20044;-52
2021/01/01 14:03:54;;;;;;;5.88;3.08;;;6.10;99.90;;;;;;5011573;28;20025;-57